sensor_id;sensor_type;location;lat;lon;timestamp;P1;durP1;ratioP1;P2;durP2;ratioP2
7104;SDS011;3594;42.152;24.714;2023-07-08T00:00:23;8.27;;;5.28;;
7104;SDS011;3594;42.152;24.714;2023-07-08T00:02:49;7.82;;;5.07;;
7104;SDS011;3594;42.152;24.714;2023-07-08T00:05:15;8.07;;;5.07;;
7104;SDS011;3594;42.152;24.714;2023-07-08T00:07:44;8.38;;;5.30;;
7104;SDS011;3594;42.152;24.714;2023-07-08T00:12:47;8.93;;;5.47;;
7104;SDS011;3594;42.152;24.714;2023-07-08T00:15:15;7.72;;;5.18;;
7104;SDS011;3594;42.152;24.714;2023-07-08T00:17:41;8.93;;;5.50;;
7104;SDS011;3594;42.152;24.714;2023-07-08T00:20:11;9.30;;;5.63;;
7104;SDS011;3594;42.152;24.714;2023-07-08T00:22:48;9.98;;;5.32;;
7104;SDS011;3594;42.152;24.714;2023-07-08T00:25:17;8.25;;;5.25;;
7104;SDS011;3594;42.152;24.714;2023-07-08T00:27:45;10.35;;;6.20;;
7104;SDS011;3594;42.152;24.714;2023-07-08T00:30:19;9.43;;;5.53;;
7104;SDS011;3594;42.152;24.714;2023-07-08T00:32:47;9.85;;;5.68;;
7104;SDS011;3594;42.152;24.714;2023-07-08T00:35:19;9.10;;;5.32;;
7104;SDS011;3594;42.152;24.714;2023-07-08T00:37:45;10.52;;;5.38;;
7104;SDS011;3594;42.152;24.714;2023-07-08T00:40:13;9.90;;;5.38;;
7104;SDS011;3594;42.152;24.714;2023-07-08T00:42:42;10.73;;;5.68;;
7104;SDS011;3594;42.152;24.714;2023-07-08T00:45:56;11.40;;;6.05;;
7104;SDS011;3594;42.152;24.714;2023-07-08T00:48:07;9.88;;;5.70;;
7104;SDS011;3594;42.152;24.714;2023-07-08T00:50:40;10.25;;;5.80;;
7104;SDS011;3594;42.152;24.714;2023-07-08T00:53:26;9.00;;;5.55;;
7104;SDS011;3594;42.152;24.714;2023-07-08T00:55:55;8.93;;;5.20;;
7104;SDS011;3594;42.152;24.714;2023-07-08T00:58:37;8.88;;;5.63;;
7104;SDS011;3594;42.152;24.714;2023-07-08T01:01:06;8.63;;;5.47;;
7104;SDS011;3594;42.152;24.714;2023-07-08T01:03:34;7.80;;;5.03;;
7104;SDS011;3594;42.152;24.714;2023-07-08T01:06:05;8.15;;;4.97;;
7104;SDS011;3594;42.152;24.714;2023-07-08T01:08:31;8.55;;;5.65;;
7104;SDS011;3594;42.152;24.714;2023-07-08T01:11:01;7.78;;;4.78;;
7104;SDS011;3594;42.152;24.714;2023-07-08T01:13:30;11.45;;;5.20;;
7104;SDS011;3594;42.152;24.714;2023-07-08T01:15:59;9.23;;;5.00;;
7104;SDS011;3594;42.152;24.714;2023-07-08T01:18:25;8.18;;;5.18;;
7104;SDS011;3594;42.152;24.714;2023-07-08T01:20:51;7.18;;;4.72;;
7104;SDS011;3594;42.152;24.714;2023-07-08T01:23:20;6.80;;;5.03;;
7104;SDS011;3594;42.152;24.714;2023-07-08T01:25:46;7.60;;;5.32;;
7104;SDS011;3594;42.152;24.714;2023-07-08T01:28:12;8.02;;;5.28;;
7104;SDS011;3594;42.152;24.714;2023-07-08T01:30:39;8.90;;;5.45;;
7104;SDS011;3594;42.152;24.714;2023-07-08T01:33:09;7.82;;;4.97;;
7104;SDS011;3594;42.152;24.714;2023-07-08T01:35:47;9.20;;;5.25;;
7104;SDS011;3594;42.152;24.714;2023-07-08T01:38:15;10.82;;;6.03;;
7104;SDS011;3594;42.152;24.714;2023-07-08T01:40:51;11.93;;;5.85;;
7104;SDS011;3594;42.152;24.714;2023-07-08T01:43:18;10.20;;;5.50;;
7104;SDS011;3594;42.152;24.714;2023-07-08T01:45:43;12.57;;;6.15;;
7104;SDS011;3594;42.152;24.714;2023-07-08T01:48:11;9.90;;;5.85;;
7104;SDS011;3594;42.152;24.714;2023-07-08T01:50:56;9.70;;;5.50;;
7104;SDS011;3594;42.152;24.714;2023-07-08T01:53:38;8.68;;;5.72;;
7104;SDS011;3594;42.152;24.714;2023-07-08T01:56:06;7.80;;;5.68;;
7104;SDS011;3594;42.152;24.714;2023-07-08T01:58:32;9.88;;;5.82;;
7104;SDS011;3594;42.152;24.714;2023-07-08T02:00:57;8.63;;;5.68;;
7104;SDS011;3594;42.152;24.714;2023-07-08T02:03:23;9.63;;;5.63;;
7104;SDS011;3594;42.152;24.714;2023-07-08T02:05:48;9.35;;;5.95;;
7104;SDS011;3594;42.152;24.714;2023-07-08T02:08:14;10.60;;;5.43;;
7104;SDS011;3594;42.152;24.714;2023-07-08T02:10:40;13.50;;;5.53;;
7104;SDS011;3594;42.152;24.714;2023-07-08T02:13:07;7.32;;;5.32;;
7104;SDS011;3594;42.152;24.714;2023-07-08T02:15:32;9.40;;;5.90;;
7104;SDS011;3594;42.152;24.714;2023-07-08T02:17:58;12.05;;;6.53;;
7104;SDS011;3594;42.152;24.714;2023-07-08T02:20:23;11.20;;;6.40;;
7104;SDS011;3594;42.152;24.714;2023-07-08T02:22:49;9.60;;;5.95;;
7104;SDS011;3594;42.152;24.714;2023-07-08T02:25:14;9.93;;;6.20;;
7104;SDS011;3594;42.152;24.714;2023-07-08T02:27:40;9.77;;;6.15;;
7104;SDS011;3594;42.152;24.714;2023-07-08T02:30:07;10.30;;;6.45;;
7104;SDS011;3594;42.152;24.714;2023-07-08T02:32:33;8.88;;;6.03;;
7104;SDS011;3594;42.152;24.714;2023-07-08T02:35:00;14.75;;;6.68;;
7104;SDS011;3594;42.152;24.714;2023-07-08T02:37:29;11.80;;;6.15;;
7104;SDS011;3594;42.152;24.714;2023-07-08T02:39:55;10.20;;;6.68;;
7104;SDS011;3594;42.152;24.714;2023-07-08T02:42:21;11.13;;;6.75;;
7104;SDS011;3594;42.152;24.714;2023-07-08T02:44:46;11.02;;;6.78;;
7104;SDS011;3594;42.152;24.714;2023-07-08T02:47:11;11.50;;;7.05;;
7104;SDS011;3594;42.152;24.714;2023-07-08T02:49:37;12.55;;;7.22;;
7104;SDS011;3594;42.152;24.714;2023-07-08T02:52:02;15.60;;;8.20;;
7104;SDS011;3594;42.152;24.714;2023-07-08T02:54:28;11.48;;;7.45;;
7104;SDS011;3594;42.152;24.714;2023-07-08T02:56:53;14.80;;;8.23;;
7104;SDS011;3594;42.152;24.714;2023-07-08T02:59:19;14.57;;;7.95;;
7104;SDS011;3594;42.152;24.714;2023-07-08T03:01:44;13.20;;;7.85;;
7104;SDS011;3594;42.152;24.714;2023-07-08T03:04:11;12.63;;;7.50;;
7104;SDS011;3594;42.152;24.714;2023-07-08T03:06:41;10.77;;;7.15;;
7104;SDS011;3594;42.152;24.714;2023-07-08T03:09:08;14.40;;;8.07;;
7104;SDS011;3594;42.152;24.714;2023-07-08T03:11:34;14.32;;;8.27;;
7104;SDS011;3594;42.152;24.714;2023-07-08T03:14:01;13.85;;;7.70;;
7104;SDS011;3594;42.152;24.714;2023-07-08T03:16:27;11.60;;;7.75;;
7104;SDS011;3594;42.152;24.714;2023-07-08T03:18:53;13.60;;;8.15;;
7104;SDS011;3594;42.152;24.714;2023-07-08T03:21:18;11.52;;;7.60;;
7104;SDS011;3594;42.152;24.714;2023-07-08T03:23:44;12.05;;;7.28;;
7104;SDS011;3594;42.152;24.714;2023-07-08T03:26:13;19.88;;;8.02;;
7104;SDS011;3594;42.152;24.714;2023-07-08T03:28:40;15.82;;;8.70;;
7104;SDS011;3594;42.152;24.714;2023-07-08T03:31:07;13.88;;;8.43;;
7104;SDS011;3594;42.152;24.714;2023-07-08T03:33:34;16.20;;;8.48;;
7104;SDS011;3594;42.152;24.714;2023-07-08T03:36:00;13.73;;;8.30;;
7104;SDS011;3594;42.152;24.714;2023-07-08T03:38:26;15.95;;;8.30;;
7104;SDS011;3594;42.152;24.714;2023-07-08T03:40:51;15.32;;;8.95;;
7104;SDS011;3594;42.152;24.714;2023-07-08T03:43:17;14.40;;;8.98;;
7104;SDS011;3594;42.152;24.714;2023-07-08T03:45:43;13.30;;;8.25;;
7104;SDS011;3594;42.152;24.714;2023-07-08T03:48:10;14.68;;;8.02;;
7104;SDS011;3594;42.152;24.714;2023-07-08T03:50:36;15.60;;;9.00;;
7104;SDS011;3594;42.152;24.714;2023-07-08T03:53:02;16.33;;;10.02;;
7104;SDS011;3594;42.152;24.714;2023-07-08T03:55:28;16.27;;;8.60;;
7104;SDS011;3594;42.152;24.714;2023-07-08T03:57:53;15.35;;;8.27;;
7104;SDS011;3594;42.152;24.714;2023-07-08T04:00:19;16.17;;;9.18;;
7104;SDS011;3594;42.152;24.714;2023-07-08T04:02:46;12.05;;;8.02;;
7104;SDS011;3594;42.152;24.714;2023-07-08T04:05:20;12.10;;;8.05;;
7104;SDS011;3594;42.152;24.714;2023-07-08T04:07:50;14.13;;;8.52;;
7104;SDS011;3594;42.152;24.714;2023-07-08T04:10:15;13.68;;;8.52;;
7104;SDS011;3594;42.152;24.714;2023-07-08T04:12:42;14.68;;;8.63;;
7104;SDS011;3594;42.152;24.714;2023-07-08T04:15:08;14.65;;;8.48;;
7104;SDS011;3594;42.152;24.714;2023-07-08T04:17:36;13.90;;;8.70;;
7104;SDS011;3594;42.152;24.714;2023-07-08T04:20:06;13.30;;;8.63;;
7104;SDS011;3594;42.152;24.714;2023-07-08T04:22:33;13.38;;;8.32;;
7104;SDS011;3594;42.152;24.714;2023-07-08T04:24:59;12.75;;;8.20;;
7104;SDS011;3594;42.152;24.714;2023-07-08T04:27:24;14.15;;;8.02;;
7104;SDS011;3594;42.152;24.714;2023-07-08T04:29:49;13.80;;;8.75;;
7104;SDS011;3594;42.152;24.714;2023-07-08T04:32:15;14.38;;;8.15;;
7104;SDS011;3594;42.152;24.714;2023-07-08T04:34:40;12.63;;;7.80;;
7104;SDS011;3594;42.152;24.714;2023-07-08T04:37:05;13.68;;;8.48;;
7104;SDS011;3594;42.152;24.714;2023-07-08T04:39:31;13.32;;;8.25;;
7104;SDS011;3594;42.152;24.714;2023-07-08T04:41:57;16.42;;;8.57;;
7104;SDS011;3594;42.152;24.714;2023-07-08T04:44:22;14.77;;;7.90;;
7104;SDS011;3594;42.152;24.714;2023-07-08T04:46:50;12.20;;;7.95;;
7104;SDS011;3594;42.152;24.714;2023-07-08T04:49:19;13.70;;;7.88;;
7104;SDS011;3594;42.152;24.714;2023-07-08T04:51:45;11.07;;;7.72;;
7104;SDS011;3594;42.152;24.714;2023-07-08T04:54:10;15.43;;;8.40;;
7104;SDS011;3594;42.152;24.714;2023-07-08T04:56:38;13.13;;;7.90;;
7104;SDS011;3594;42.152;24.714;2023-07-08T04:59:08;13.30;;;8.18;;
7104;SDS011;3594;42.152;24.714;2023-07-08T05:01:34;13.68;;;8.15;;
7104;SDS011;3594;42.152;24.714;2023-07-08T05:04:00;12.50;;;8.10;;
7104;SDS011;3594;42.152;24.714;2023-07-08T05:06:26;12.10;;;7.82;;
7104;SDS011;3594;42.152;24.714;2023-07-08T05:08:52;12.82;;;8.20;;
7104;SDS011;3594;42.152;24.714;2023-07-08T05:11:17;12.68;;;8.02;;
7104;SDS011;3594;42.152;24.714;2023-07-08T05:13:43;11.70;;;7.45;;
7104;SDS011;3594;42.152;24.714;2023-07-08T05:16:08;13.05;;;8.00;;
7104;SDS011;3594;42.152;24.714;2023-07-08T05:18:34;12.43;;;7.88;;
7104;SDS011;3594;42.152;24.714;2023-07-08T05:20:59;10.77;;;6.90;;
7104;SDS011;3594;42.152;24.714;2023-07-08T05:23:24;11.18;;;7.38;;
7104;SDS011;3594;42.152;24.714;2023-07-08T05:25:50;11.32;;;7.80;;
7104;SDS011;3594;42.152;24.714;2023-07-08T05:28:15;10.88;;;6.93;;
7104;SDS011;3594;42.152;24.714;2023-07-08T05:30:41;11.95;;;7.38;;
7104;SDS011;3594;42.152;24.714;2023-07-08T05:33:07;14.80;;;7.53;;
7104;SDS011;3594;42.152;24.714;2023-07-08T05:35:34;10.90;;;7.32;;
7104;SDS011;3594;42.152;24.714;2023-07-08T05:37:59;12.40;;;7.85;;
7104;SDS011;3594;42.152;24.714;2023-07-08T05:40:25;12.25;;;7.53;;
7104;SDS011;3594;42.152;24.714;2023-07-08T05:42:50;12.90;;;7.35;;
7104;SDS011;3594;42.152;24.714;2023-07-08T05:45:16;12.35;;;6.75;;
7104;SDS011;3594;42.152;24.714;2023-07-08T05:47:41;11.25;;;7.03;;
7104;SDS011;3594;42.152;24.714;2023-07-08T05:50:07;11.63;;;6.70;;
7104;SDS011;3594;42.152;24.714;2023-07-08T05:52:33;10.15;;;6.82;;
7104;SDS011;3594;42.152;24.714;2023-07-08T05:54:58;13.13;;;7.65;;
7104;SDS011;3594;42.152;24.714;2023-07-08T05:57:24;10.80;;;7.15;;
7104;SDS011;3594;42.152;24.714;2023-07-08T05:59:49;10.85;;;6.70;;
7104;SDS011;3594;42.152;24.714;2023-07-08T06:02:15;11.32;;;6.65;;
7104;SDS011;3594;42.152;24.714;2023-07-08T06:04:41;10.38;;;6.80;;
7104;SDS011;3594;42.152;24.714;2023-07-08T06:07:07;9.90;;;6.60;;
7104;SDS011;3594;42.152;24.714;2023-07-08T06:09:33;13.18;;;6.90;;
7104;SDS011;3594;42.152;24.714;2023-07-08T06:11:58;12.27;;;6.78;;
7104;SDS011;3594;42.152;24.714;2023-07-08T06:14:24;11.43;;;7.20;;
7104;SDS011;3594;42.152;24.714;2023-07-08T06:16:49;11.20;;;6.72;;
7104;SDS011;3594;42.152;24.714;2023-07-08T06:19:15;10.43;;;6.57;;
7104;SDS011;3594;42.152;24.714;2023-07-08T06:21:42;9.90;;;6.53;;
7104;SDS011;3594;42.152;24.714;2023-07-08T06:24:07;9.05;;;6.50;;
7104;SDS011;3594;42.152;24.714;2023-07-08T06:26:33;11.25;;;7.10;;
7104;SDS011;3594;42.152;24.714;2023-07-08T06:28:59;10.95;;;6.47;;
7104;SDS011;3594;42.152;24.714;2023-07-08T06:31:25;9.93;;;6.40;;
7104;SDS011;3594;42.152;24.714;2023-07-08T06:33:50;11.00;;;5.72;;
7104;SDS011;3594;42.152;24.714;2023-07-08T06:36:16;8.23;;;5.10;;
7104;SDS011;3594;42.152;24.714;2023-07-08T06:38:41;8.13;;;5.40;;
7104;SDS011;3594;42.152;24.714;2023-07-08T06:41:07;9.23;;;5.28;;
7104;SDS011;3594;42.152;24.714;2023-07-08T06:43:32;9.20;;;5.18;;
7104;SDS011;3594;42.152;24.714;2023-07-08T06:45:57;8.02;;;4.65;;
7104;SDS011;3594;42.152;24.714;2023-07-08T06:48:23;7.85;;;4.97;;
7104;SDS011;3594;42.152;24.714;2023-07-08T06:50:49;6.70;;;4.90;;
7104;SDS011;3594;42.152;24.714;2023-07-08T06:53:15;6.32;;;4.82;;
7104;SDS011;3594;42.152;24.714;2023-07-08T06:55:41;6.70;;;4.78;;
7104;SDS011;3594;42.152;24.714;2023-07-08T06:58:08;5.45;;;4.00;;
7104;SDS011;3594;42.152;24.714;2023-07-08T07:00:33;5.75;;;4.28;;
7104;SDS011;3594;42.152;24.714;2023-07-08T07:02:59;6.75;;;4.28;;
7104;SDS011;3594;42.152;24.714;2023-07-08T07:05:24;6.22;;;3.97;;
7104;SDS011;3594;42.152;24.714;2023-07-08T07:07:50;5.63;;;4.20;;
7104;SDS011;3594;42.152;24.714;2023-07-08T07:10:18;6.28;;;4.38;;
7104;SDS011;3594;42.152;24.714;2023-07-08T07:12:44;11.05;;;4.32;;
7104;SDS011;3594;42.152;24.714;2023-07-08T07:15:09;6.75;;;4.25;;
7104;SDS011;3594;42.152;24.714;2023-07-08T07:17:34;6.13;;;4.03;;
7104;SDS011;3594;42.152;24.714;2023-07-08T07:20:01;4.95;;;4.07;;
7104;SDS011;3594;42.152;24.714;2023-07-08T07:22:27;5.43;;;4.00;;
7104;SDS011;3594;42.152;24.714;2023-07-08T07:24:53;5.82;;;4.38;;
7104;SDS011;3594;42.152;24.714;2023-07-08T07:27:19;6.10;;;4.07;;
7104;SDS011;3594;42.152;24.714;2023-07-08T07:29:45;5.65;;;3.95;;
7104;SDS011;3594;42.152;24.714;2023-07-08T07:32:15;6.13;;;4.30;;
7104;SDS011;3594;42.152;24.714;2023-07-08T07:34:42;6.97;;;4.35;;
7104;SDS011;3594;42.152;24.714;2023-07-08T07:37:12;6.50;;;4.53;;
7104;SDS011;3594;42.152;24.714;2023-07-08T07:39:39;5.72;;;4.05;;
7104;SDS011;3594;42.152;24.714;2023-07-08T07:42:05;11.23;;;4.78;;
7104;SDS011;3594;42.152;24.714;2023-07-08T07:44:30;5.68;;;4.07;;
7104;SDS011;3594;42.152;24.714;2023-07-08T07:46:56;5.78;;;4.20;;
7104;SDS011;3594;42.152;24.714;2023-07-08T07:49:21;5.35;;;3.72;;
7104;SDS011;3594;42.152;24.714;2023-07-08T07:51:46;6.18;;;4.47;;
7104;SDS011;3594;42.152;24.714;2023-07-08T07:54:13;4.93;;;3.80;;
7104;SDS011;3594;42.152;24.714;2023-07-08T07:56:39;6.40;;;4.30;;
7104;SDS011;3594;42.152;24.714;2023-07-08T07:59:04;5.75;;;3.97;;
7104;SDS011;3594;42.152;24.714;2023-07-08T08:01:30;6.80;;;4.07;;
7104;SDS011;3594;42.152;24.714;2023-07-08T08:03:55;6.65;;;4.18;;
7104;SDS011;3594;42.152;24.714;2023-07-08T08:06:20;5.70;;;3.60;;
7104;SDS011;3594;42.152;24.714;2023-07-08T08:08:46;4.88;;;3.75;;
7104;SDS011;3594;42.152;24.714;2023-07-08T08:11:11;6.53;;;3.42;;
7104;SDS011;3594;42.152;24.714;2023-07-08T08:13:37;8.70;;;4.15;;
7104;SDS011;3594;42.152;24.714;2023-07-08T08:16:03;4.68;;;3.47;;
7104;SDS011;3594;42.152;24.714;2023-07-08T08:18:29;5.57;;;3.88;;
7104;SDS011;3594;42.152;24.714;2023-07-08T08:20:54;5.53;;;3.80;;
7104;SDS011;3594;42.152;24.714;2023-07-08T08:23:20;6.53;;;4.18;;
7104;SDS011;3594;42.152;24.714;2023-07-08T08:25:46;5.88;;;3.92;;
7104;SDS011;3594;42.152;24.714;2023-07-08T08:28:11;6.07;;;3.85;;
7104;SDS011;3594;42.152;24.714;2023-07-08T08:30:37;4.57;;;3.58;;
7104;SDS011;3594;42.152;24.714;2023-07-08T08:33:02;5.38;;;3.65;;
7104;SDS011;3594;42.152;24.714;2023-07-08T08:35:28;6.63;;;3.42;;
7104;SDS011;3594;42.152;24.714;2023-07-08T08:37:53;6.15;;;3.53;;
7104;SDS011;3594;42.152;24.714;2023-07-08T08:40:19;5.75;;;3.58;;
7104;SDS011;3594;42.152;24.714;2023-07-08T08:42:51;4.93;;;3.53;;
7104;SDS011;3594;42.152;24.714;2023-07-08T08:45:18;5.28;;;3.47;;
7104;SDS011;3594;42.152;24.714;2023-07-08T08:47:47;4.22;;;3.25;;
7104;SDS011;3594;42.152;24.714;2023-07-08T08:53:02;4.40;;;3.15;;
7104;SDS011;3594;42.152;24.714;2023-07-08T08:55:30;4.68;;;3.30;;
7104;SDS011;3594;42.152;24.714;2023-07-08T08:58:22;7.05;;;3.20;;
7104;SDS011;3594;42.152;24.714;2023-07-08T09:00:59;3.60;;;3.00;;
7104;SDS011;3594;42.152;24.714;2023-07-08T09:03:35;6.72;;;3.53;;
7104;SDS011;3594;42.152;24.714;2023-07-08T09:06:07;4.70;;;3.13;;
7104;SDS011;3594;42.152;24.714;2023-07-08T09:08:36;4.13;;;2.63;;
7104;SDS011;3594;42.152;24.714;2023-07-08T09:13:39;5.72;;;3.38;;
7104;SDS011;3594;42.152;24.714;2023-07-08T09:18:46;5.57;;;3.10;;
7104;SDS011;3594;42.152;24.714;2023-07-08T09:21:19;4.85;;;3.00;;
7104;SDS011;3594;42.152;24.714;2023-07-08T09:23:51;3.70;;;2.90;;
7104;SDS011;3594;42.152;24.714;2023-07-08T09:26:23;4.93;;;3.33;;
7104;SDS011;3594;42.152;24.714;2023-07-08T09:28:50;4.63;;;3.17;;
7104;SDS011;3594;42.152;24.714;2023-07-08T09:33:53;3.92;;;2.95;;
7104;SDS011;3594;42.152;24.714;2023-07-08T09:36:29;4.45;;;2.92;;
7104;SDS011;3594;42.152;24.714;2023-07-08T09:38:54;5.45;;;3.17;;
7104;SDS011;3594;42.152;24.714;2023-07-08T09:41:30;4.65;;;3.08;;
7104;SDS011;3594;42.152;24.714;2023-07-08T09:46:44;3.47;;;2.70;;
7104;SDS011;3594;42.152;24.714;2023-07-08T09:49:20;4.22;;;3.17;;
7104;SDS011;3594;42.152;24.714;2023-07-08T09:52:00;3.85;;;2.80;;
7104;SDS011;3594;42.152;24.714;2023-07-08T09:54:27;3.90;;;3.08;;
7104;SDS011;3594;42.152;24.714;2023-07-08T09:59:26;5.10;;;3.20;;
7104;SDS011;3594;42.152;24.714;2023-07-08T10:01:58;4.10;;;3.03;;
7104;SDS011;3594;42.152;24.714;2023-07-08T10:04:26;4.10;;;3.17;;
7104;SDS011;3594;42.152;24.714;2023-07-08T10:06:52;4.00;;;2.97;;
7104;SDS011;3594;42.152;24.714;2023-07-08T10:09:20;6.72;;;3.28;;
7104;SDS011;3594;42.152;24.714;2023-07-08T10:11:58;5.13;;;3.38;;
7104;SDS011;3594;42.152;24.714;2023-07-08T10:14:29;4.35;;;3.00;;
7104;SDS011;3594;42.152;24.714;2023-07-08T10:16:57;4.80;;;2.95;;
7104;SDS011;3594;42.152;24.714;2023-07-08T10:19:22;3.72;;;2.80;;
7104;SDS011;3594;42.152;24.714;2023-07-08T10:22:02;4.68;;;3.20;;
7104;SDS011;3594;42.152;24.714;2023-07-08T10:24:51;3.75;;;2.70;;
7104;SDS011;3594;42.152;24.714;2023-07-08T10:27:36;3.63;;;3.10;;
7104;SDS011;3594;42.152;24.714;2023-07-08T10:30:11;3.92;;;3.05;;
7104;SDS011;3594;42.152;24.714;2023-07-08T10:32:57;4.47;;;2.95;;
7104;SDS011;3594;42.152;24.714;2023-07-08T10:36:03;6.82;;;2.95;;
7104;SDS011;3594;42.152;24.714;2023-07-08T10:38:44;4.93;;;3.00;;
7104;SDS011;3594;42.152;24.714;2023-07-08T10:41:14;3.92;;;2.90;;
7104;SDS011;3594;42.152;24.714;2023-07-08T10:43:57;3.78;;;2.60;;
7104;SDS011;3594;42.152;24.714;2023-07-08T10:52:31;3.95;;;2.70;;
7104;SDS011;3594;42.152;24.714;2023-07-08T10:57:43;4.05;;;2.40;;
7104;SDS011;3594;42.152;24.714;2023-07-08T11:00:21;5.38;;;2.83;;
7104;SDS011;3594;42.152;24.714;2023-07-08T11:06:07;3.17;;;2.42;;
7104;SDS011;3594;42.152;24.714;2023-07-08T11:08:44;3.63;;;2.75;;
7104;SDS011;3594;42.152;24.714;2023-07-08T11:11:56;4.90;;;3.20;;
7104;SDS011;3594;42.152;24.714;2023-07-08T11:14:08;4.00;;;2.95;;
7104;SDS011;3594;42.152;24.714;2023-07-08T11:19:44;4.32;;;2.72;;
7104;SDS011;3594;42.152;24.714;2023-07-08T11:22:32;11.50;;;3.25;;
7104;SDS011;3594;42.152;24.714;2023-07-08T11:25:01;9.50;;;4.00;;
7104;SDS011;3594;42.152;24.714;2023-07-08T11:27:32;4.10;;;3.15;;
7104;SDS011;3594;42.152;24.714;2023-07-08T11:30:05;4.97;;;2.97;;
7104;SDS011;3594;42.152;24.714;2023-07-08T11:32:37;4.60;;;3.00;;
7104;SDS011;3594;42.152;24.714;2023-07-08T11:35:05;3.88;;;3.00;;
7104;SDS011;3594;42.152;24.714;2023-07-08T11:37:38;4.60;;;3.05;;
7104;SDS011;3594;42.152;24.714;2023-07-08T11:42:39;4.97;;;3.38;;
7104;SDS011;3594;42.152;24.714;2023-07-08T11:45:08;5.07;;;2.97;;
7104;SDS011;3594;42.152;24.714;2023-07-08T11:47:54;4.18;;;3.05;;
7104;SDS011;3594;42.152;24.714;2023-07-08T11:50:41;5.72;;;3.40;;
7104;SDS011;3594;42.152;24.714;2023-07-08T11:53:11;4.10;;;3.05;;
7104;SDS011;3594;42.152;24.714;2023-07-08T11:55:55;4.10;;;3.20;;
7104;SDS011;3594;42.152;24.714;2023-07-08T11:58:26;4.50;;;3.30;;
7104;SDS011;3594;42.152;24.714;2023-07-08T12:01:16;4.63;;;2.85;;
7104;SDS011;3594;42.152;24.714;2023-07-08T12:08:53;4.65;;;3.22;;
7104;SDS011;3594;42.152;24.714;2023-07-08T12:11:24;4.15;;;2.90;;
7104;SDS011;3594;42.152;24.714;2023-07-08T12:13:53;4.38;;;3.28;;
7104;SDS011;3594;42.152;24.714;2023-07-08T12:16:22;4.47;;;3.17;;
7104;SDS011;3594;42.152;24.714;2023-07-08T12:18:48;5.13;;;3.42;;
7104;SDS011;3594;42.152;24.714;2023-07-08T12:21:14;4.30;;;2.92;;
7104;SDS011;3594;42.152;24.714;2023-07-08T12:23:46;4.22;;;2.70;;
7104;SDS011;3594;42.152;24.714;2023-07-08T12:26:12;4.53;;;3.03;;
7104;SDS011;3594;42.152;24.714;2023-07-08T12:28:38;3.75;;;2.67;;
7104;SDS011;3594;42.152;24.714;2023-07-08T12:31:18;4.80;;;3.08;;
7104;SDS011;3594;42.152;24.714;2023-07-08T12:33:45;4.25;;;2.90;;
7104;SDS011;3594;42.152;24.714;2023-07-08T12:36:13;4.47;;;2.90;;
7104;SDS011;3594;42.152;24.714;2023-07-08T12:38:45;3.67;;;2.25;;
7104;SDS011;3594;42.152;24.714;2023-07-08T12:41:12;3.65;;;2.80;;
7104;SDS011;3594;42.152;24.714;2023-07-08T12:43:42;3.53;;;2.35;;
7104;SDS011;3594;42.152;24.714;2023-07-08T12:46:11;3.35;;;2.67;;
7104;SDS011;3594;42.152;24.714;2023-07-08T12:48:38;4.80;;;2.92;;
7104;SDS011;3594;42.152;24.714;2023-07-08T12:51:04;3.40;;;2.58;;
7104;SDS011;3594;42.152;24.714;2023-07-08T12:53:31;3.28;;;2.53;;
7104;SDS011;3594;42.152;24.714;2023-07-08T12:55:59;4.43;;;3.08;;
7104;SDS011;3594;42.152;24.714;2023-07-08T12:58:27;4.78;;;2.58;;
7104;SDS011;3594;42.152;24.714;2023-07-08T13:00:55;5.65;;;3.25;;
7104;SDS011;3594;42.152;24.714;2023-07-08T13:03:23;4.28;;;2.95;;
7104;SDS011;3594;42.152;24.714;2023-07-08T13:05:52;3.47;;;2.67;;
7104;SDS011;3594;42.152;24.714;2023-07-08T13:08:20;3.28;;;2.50;;
7104;SDS011;3594;42.152;24.714;2023-07-08T13:10:48;3.97;;;2.15;;
7104;SDS011;3594;42.152;24.714;2023-07-08T13:13:20;3.65;;;2.30;;
7104;SDS011;3594;42.152;24.714;2023-07-08T13:15:48;3.78;;;2.10;;
7104;SDS011;3594;42.152;24.714;2023-07-08T13:18:18;3.55;;;2.03;;
7104;SDS011;3594;42.152;24.714;2023-07-08T13:20:49;3.85;;;2.50;;
7104;SDS011;3594;42.152;24.714;2023-07-08T13:23:19;3.95;;;2.35;;
7104;SDS011;3594;42.152;24.714;2023-07-08T13:25:47;5.15;;;2.50;;
7104;SDS011;3594;42.152;24.714;2023-07-08T13:28:18;4.13;;;2.60;;
7104;SDS011;3594;42.152;24.714;2023-07-08T13:31:31;3.15;;;2.20;;
7104;SDS011;3594;42.152;24.714;2023-07-08T13:33:47;2.67;;;2.22;;
7104;SDS011;3594;42.152;24.714;2023-07-08T13:36:18;3.90;;;1.88;;
7104;SDS011;3594;42.152;24.714;2023-07-08T13:38:45;2.40;;;1.75;;
7104;SDS011;3594;42.152;24.714;2023-07-08T13:41:12;1.90;;;1.40;;
7104;SDS011;3594;42.152;24.714;2023-07-08T13:43:44;3.10;;;1.90;;
7104;SDS011;3594;42.152;24.714;2023-07-08T13:51:50;2.13;;;1.42;;
7104;SDS011;3594;42.152;24.714;2023-07-08T13:54:23;1.30;;;1.20;;
7104;SDS011;3594;42.152;24.714;2023-07-08T13:56:56;1.45;;;1.35;;
7104;SDS011;3594;42.152;24.714;2023-07-08T13:59:26;1.73;;;1.40;;
7104;SDS011;3594;42.152;24.714;2023-07-08T14:01:53;3.60;;;1.70;;
7104;SDS011;3594;42.152;24.714;2023-07-08T14:04:22;1.55;;;1.30;;
7104;SDS011;3594;42.152;24.714;2023-07-08T14:06:58;1.48;;;1.38;;
7104;SDS011;3594;42.152;24.714;2023-07-08T14:09:24;2.00;;;1.40;;
7104;SDS011;3594;42.152;24.714;2023-07-08T14:11:50;2.05;;;1.40;;
7104;SDS011;3594;42.152;24.714;2023-07-08T14:14:17;1.80;;;1.38;;
7104;SDS011;3594;42.152;24.714;2023-07-08T14:16:44;2.15;;;1.30;;
7104;SDS011;3594;42.152;24.714;2023-07-08T14:19:22;1.58;;;1.40;;
7104;SDS011;3594;42.152;24.714;2023-07-08T14:21:54;1.58;;;1.40;;
7104;SDS011;3594;42.152;24.714;2023-07-08T14:24:21;2.15;;;1.60;;
7104;SDS011;3594;42.152;24.714;2023-07-08T14:26:47;2.20;;;1.63;;
7104;SDS011;3594;42.152;24.714;2023-07-08T14:29:12;2.40;;;1.65;;
7104;SDS011;3594;42.152;24.714;2023-07-08T14:31:38;2.33;;;1.80;;
7104;SDS011;3594;42.152;24.714;2023-07-08T14:34:12;3.95;;;2.10;;
7104;SDS011;3594;42.152;24.714;2023-07-08T14:36:42;3.28;;;1.92;;
7104;SDS011;3594;42.152;24.714;2023-07-08T14:39:14;2.40;;;1.73;;
7104;SDS011;3594;42.152;24.714;2023-07-08T14:41:41;2.65;;;2.00;;
7104;SDS011;3594;42.152;24.714;2023-07-08T14:44:10;2.50;;;2.10;;
7104;SDS011;3594;42.152;24.714;2023-07-08T14:46:45;3.35;;;2.17;;
7104;SDS011;3594;42.152;24.714;2023-07-08T14:49:17;4.00;;;2.00;;
7104;SDS011;3594;42.152;24.714;2023-07-08T14:51:44;3.70;;;2.30;;
7104;SDS011;3594;42.152;24.714;2023-07-08T14:54:09;3.97;;;2.15;;
7104;SDS011;3594;42.152;24.714;2023-07-08T14:56:35;2.45;;;2.00;;
7104;SDS011;3594;42.152;24.714;2023-07-08T14:59:01;3.03;;;1.90;;
7104;SDS011;3594;42.152;24.714;2023-07-08T15:01:27;2.50;;;2.00;;
7104;SDS011;3594;42.152;24.714;2023-07-08T15:03:55;3.58;;;2.00;;
7104;SDS011;3594;42.152;24.714;2023-07-08T15:06:21;2.92;;;2.20;;
7104;SDS011;3594;42.152;24.714;2023-07-08T15:08:47;2.25;;;1.98;;
7104;SDS011;3594;42.152;24.714;2023-07-08T15:11:12;2.60;;;1.98;;
7104;SDS011;3594;42.152;24.714;2023-07-08T15:13:38;3.25;;;2.00;;
7104;SDS011;3594;42.152;24.714;2023-07-08T15:16:05;3.40;;;2.28;;
7104;SDS011;3594;42.152;24.714;2023-07-08T15:18:30;3.38;;;2.20;;
7104;SDS011;3594;42.152;24.714;2023-07-08T15:20:56;3.03;;;2.28;;
7104;SDS011;3594;42.152;24.714;2023-07-08T15:23:21;2.53;;;2.00;;
7104;SDS011;3594;42.152;24.714;2023-07-08T15:25:47;2.45;;;1.95;;
7104;SDS011;3594;42.152;24.714;2023-07-08T15:28:15;3.22;;;2.22;;
7104;SDS011;3594;42.152;24.714;2023-07-08T15:30:45;2.42;;;2.00;;
7104;SDS011;3594;42.152;24.714;2023-07-08T15:33:12;3.03;;;2.10;;
7104;SDS011;3594;42.152;24.714;2023-07-08T15:35:40;2.63;;;2.15;;
7104;SDS011;3594;42.152;24.714;2023-07-08T15:38:05;3.15;;;2.10;;
7104;SDS011;3594;42.152;24.714;2023-07-08T15:40:32;2.25;;;1.88;;
7104;SDS011;3594;42.152;24.714;2023-07-08T15:43:00;3.65;;;2.30;;
7104;SDS011;3594;42.152;24.714;2023-07-08T15:48:12;2.92;;;2.10;;
7104;SDS011;3594;42.152;24.714;2023-07-08T15:50:39;2.78;;;2.08;;
7104;SDS011;3594;42.152;24.714;2023-07-08T15:53:05;2.70;;;2.10;;
7104;SDS011;3594;42.152;24.714;2023-07-08T15:55:31;3.00;;;2.00;;